Tiempo atmosférico en la estación meteorológica de Calanda, Teruel (459 m.)



Fecha
DESCASC
Temp. máxima en grados centígrados (hora)
DESCASC
Temp. mínima en grados centígrados (hora)
DESCASC
Temp. media en grados centígrados
DESCASC
Racha de viento máxima en m/sg (hora)
DESCASC
Velocidad máxima media en intervalos de 10 minutos(hora)
DESCASC
Precipitaciones diarias en mm
DESCASC
Precipitaciones de 00:00 a 06:00 en mm
DESCASC
Precipitaciones de 06:00 a 12:00 en mm
DESCASC
Precipitaciones de 12:00 a 18:00 en mm
DESCASC
Precipitaciones de 18:00 a 24:00 en mm
DESCASC
19-05-2019 18.6 (17:30) 8.5 (02:20) 13.6 15.83 (17:10) 9.17 (17:10) 0 0 0 0 0
18-05-2019 19.2 (17:30) 7.2 (05:10) 13.2 12.5 (18:50) 7.5 (18:40) 0.2 0 0 0 0.2
17-05-2019 16.2 (00:00) 9.3 (07:00) 12.8 17.22 (13:50) 10.56 (17:30) 2 0 2 0 0
16-05-2019 27.4 (18:00) 7.8 (00:00) 17.6 13.89 (22:20) 7.22 (18:40) 0 0 0 0 0
15-05-2019 29.8 (18:20) 11.8 (00:00) 20.8 11.39 (18:20) 7.22 (19:50) 0 0 0 0 0
14-05-2019 26.8 (18:10) 9.6 (00:00) 18.2 6.11 (14:20) 4.17 (07:50) 0 0 0 0 0
13-05-2019 26.9 (18:10) 10 (00:00) 18.4 8.06 (00:10) 4.44 (00:10) 0 0 0 0 0
12-05-2019 24.4 (17:30) 7.2 (00:00) 15.8 11.67 (01:50) 7.22 (01:40) 0 0 0 0 0
11-05-2019 22.2 (16:20) 13.9 (00:00) 18.1 13.61 (19:10) 8.89 (19:40) 1.2 1.2 0 0 0
10-05-2019 30.3 (16:20) 16 (00:00) 23.1 10 (12:50) 5.83 (11:10) 0 0 0 0 0
09-05-2019 -- (--) -- (--) -- -- (--) -- (--) -- -- -- 0 0
08-05-2019 26.5 (16:40) 17.1 (00:00) 21.8 15.83 (19:10) 8.89 (19:10) 0 0 0 0 0
07-05-2019 27 (18:10) 9.3 (00:00) 18.2 6.67 (14:30) 4.44 (02:50) 0 0 0 0 0
06-05-2019 22.6 (18:30) 1.3 (00:00) 12 8.61 (00:10) 5.83 (00:10) 0 0 0 0 0
05-05-2019 18.6 (18:00) 6.4 (00:00) 12.5 16.39 (01:10) 8.61 (00:50) 0 0 0 0 0
04-05-2019 19.7 (17:00) 6.8 (00:00) 13.3 13.61 (21:40) 8.89 (18:00) 0 0 0 0 0
03-05-2019 15.1 (19:00) 8.7 (00:00) 11.9 13.33 (21:20) 8.89 (21:20) 1.2 0 1.2 0 0
02-05-2019 22.3 (19:20) 9.8 (07:30) 16 11.39 (02:20) 6.94 (02:20) 1.4 1.4 0 0 0
01-05-2019 24.2 (17:50) 8.3 (00:00) 16.3 6.11 (00:50) 4.44 (00:50) 0 0 0 0 0
30-04-2019 23.7 (17:40) 7.2 (00:00) 15.5 10.56 (15:50) 5.28 (01:20) 0 0 0 0 0
29-04-2019 22.6 (17:00) 8 (00:00) 15.3 8.33 (11:40) 5.56 (11:10) 0 0 0 0 0
28-04-2019 23.2 (18:40) 8.4 (00:00) 15.8 9.44 (17:00) 5.83 (17:00) 0 0 0 0 0
27-04-2019 21.6 (17:00) 7.5 (00:00) 14.6 10.56 (17:50) 6.39 (17:30) 0 0 0 0 0
26-04-2019 18.5 (15:50) 7 (00:00) 12.8 10.28 (10:30) 6.67 (10:40) 0 0 0 0 0
25-04-2019 19.2 (15:20) 9.7 (00:00) 14.5 14.44 (18:30) 8.33 (01:30) 0.2 0 0 0 0.2
24-04-2019 19.4 (18:30) 7.8 (00:00) 13.6 14.72 (23:10) 9.17 (23:10) 0 0 0 0 0

Gráficas

Temp. máximas Temp. mínimas Temp. medias Precipitaciones Rachas de viento máximas Velocidades máximas media en intervalos de 10 minutos

Datos horarios

Fecha y hora oficial Temperatura (ºC) Velocidad del viento (km/h) Dirección del viento Racha (km/h) Dirección de racha Precipitación (mm) Presión (hPa) Tendencia (hPa) Humedad (%)
2019-05-23 23:00:00 21.2 15 Oeste 34 Noroeste 0 962 2.4 45
2019-05-23 22:00:00 23.3 14 Noroeste 23 Noroeste 0 960.5 0.6 26
2019-05-23 21:00:00 24.6 0 Calma 6 Nordeste 0 959.8 -0.5 27
2019-05-23 20:00:00 26.8 3 Nordeste 11 Nordeste 0 959.6 -0.8 21
2019-05-23 19:00:00 26.8 6 Norte 14 Norte 0 959.9 -0.9 20
2019-05-23 18:00:00 27.1 6 Norte 16 Norte 0 960.3 -0.9 19
2019-05-23 17:00:00 27.9 11 Norte 19 Norte 0 960.4 -1.4 18
2019-05-23 16:00:00 27.9 8 Norte 22 Nordeste 0 960.8 -1.6 20
2019-05-23 15:00:00 28.3 10 Nordeste 20 Norte 0 961.2 -1.8 20
2019-05-23 14:00:00 27.5 5 Este 20 Norte 0 961.8 -1.5 24
2019-05-23 13:00:00 25.4 8 Nordeste 15 Norte 0 962.4 -1.1 24
2019-05-23 12:00:00 24.5 6 Norte 15 Norte 0 963 -0.3 25
2019-05-23 11:00:00 22.7 8 Norte 13 Norte 0 963.3 0.2 30
2019-05-23 10:00:00 21.3 4 Nordeste 9 Norte 0 963.5 0.6 41
2019-05-23 09:00:00 18.7 6 Sudoeste 13 Sudoeste 0 963.3 0.4 51
2019-05-23 08:00:00 16.4 9 Sudoeste 16 Sudoeste 0 963.1 0.5 59
2019-05-23 07:00:00 14.7 12 Sudoeste 17 Sudoeste 0 962.9 0.1 64
2019-05-23 06:00:00 14.5 11 Sudoeste 14 Sudoeste 0 962.9 -0.2 65
2019-05-23 05:00:00 15.2 9 Sudoeste 20 Sudoeste 0 962.6 -0.8 61
2019-05-23 04:00:00 15.9 14 Sudoeste 19 Sudoeste 0 962.8 -0.6 58
2019-05-23 03:00:00 16.5 8 Sudoeste 22 Sudoeste 0 963.1 -0.3 57
2019-05-23 02:00:00 17.4 14 Sudoeste 21 Sudoeste 0 963.4 0 54
2019-05-23 01:00:00 18 12 Sudoeste 17 Sudoeste 0 963.4 0.6 53
2019-05-23 00:00:00 18.4 8 Sudoeste 13 Sudoeste 0 963.4 1 48
2019-05-22 23:00:00 17 4 Sudoeste 7 Oeste 0 963.4 1.3 34
2019-05-22 22:00:00 19.8 2 Sur 9 Norte 0 962.8 0.9 28
2019-05-22 21:00:00 23.1 5 Norte 17 Norte 0 962.4 0.4 21
2019-05-22 20:00:00 25 7 Norte 20 Norte 0 962.1 -0.3 21
2019-05-22 19:00:00 25.7 11 Nordeste 24 Norte 0 961.9 -0.8 22
2019-05-22 18:00:00 26 12 Norte 24 Nordeste 0 962 -1.2 21
2019-05-22 17:00:00 25.5 9 Norte 22 Norte 0 962.4 -1.3 23
2019-05-22 16:00:00 24.9 9 Noroeste 24 Noroeste 0 962.7 -1.5 24
2019-05-22 15:00:00 24.2 10 Noroeste 23 Norte 0 963.2 -1.1 23
2019-05-22 14:00:00 22.7 10 Norte 24 Nordeste 0 963.7 -0.7 26
2019-05-22 13:00:00 21.4 6 Norte 19 Norte 0 964.2 -0.3 27
2019-05-22 12:00:00 20.6 8 Norte 17 Norte 0 964.3 -0.3 28
2019-05-22 11:00:00 20.6 5 Este 11 Sudeste 0 964.4 -0.1 27
2019-05-22 10:00:00 17.6 4 Sudeste 10 Sur 0 964.5 0.3 33
2019-05-22 09:00:00 14 7 Sur 14 Sudoeste 0 964.6 0.7 45
2019-05-22 08:00:00 11.4 12 Sudoeste 17 Sudoeste 0 964.5 0.9 49
2019-05-22 07:00:00 10 5 Oeste 15 Sudoeste 0 964.2 0.5 45
2019-05-22 06:00:00 11.3 12 Sudoeste 18 Sudoeste 0 963.9 0.2 43
2019-05-22 05:00:00 12.5 10 Sudoeste 17 Sudoeste 0 963.6 0.1 35
2019-05-22 04:00:00 13.1 10 Sudoeste 17 Sudoeste 0 963.7 0.2 34
2019-05-22 03:00:00 13.2 9 Oeste 15 Sudoeste 0 963.7 0.6 37
2019-05-22 02:00:00 14.8 10 Oeste 17 Sudoeste 0 963.5 0.7 35
2019-05-22 01:00:00 14.8 8 Oeste 13 Sudoeste 0 963.5 1.7 35
2019-05-22 00:00:00 16.2 7 Sudoeste 14 Oeste 0 963.1 1.8 37
2019-05-21 23:00:00 17.1 6 Oeste 13 Sudoeste 0 962.8 2 42
2019-05-21 22:00:00 17.8 7 Sudoeste 11 Sur 0 961.8 1.4 41
2019-05-21 21:00:00 19.7 9 Sur 22 Sudeste 0 961.3 0.8 40
2019-05-21 20:00:00 22.6 7 Sur 18 Sur 0 960.8 0.3 31
2019-05-21 19:00:00 24 7 Noroeste 24 Noroeste 0 960.4 -0.2 18
2019-05-21 18:00:00 24 10 Noroeste 27 Noroeste 0 960.5 -0.5 17
2019-05-21 17:00:00 23.2 9 Norte 29 Norte 0 960.5 -1 20
2019-05-21 16:00:00 23.1 13 Norte 31 Noroeste 0 960.6 -1.2 24
2019-05-21 15:00:00 22.1 13 Norte 24 Norte 0 961 -1.1 27
2019-05-21 14:00:00 21 12 Norte 27 Norte 0 961.5 -0.8 29
2019-05-21 13:00:00 19.9 8 Norte 22 Noroeste 0 961.8 -0.5 31
2019-05-21 12:00:00 19.1 7 Nordeste 18 Norte 0 962.1 -0.1 33
2019-05-21 11:00:00 17.4 4 Nordeste 12 Este 0 962.3 0.5 38
2019-05-21 10:00:00 15.9 5 Este 10 Este 0 962.3 0.8 44
2019-05-21 09:00:00 13.1 2 Este 9 Sudoeste 0 962.2 1.2 54
2019-05-21 08:00:00 11.3 7 Sudoeste 10 Sudoeste 0 961.8 1.1 59
2019-05-21 07:00:00 9.1 6 Sudoeste 10 Sudoeste 0 961.5 0.9 65
2019-05-21 06:00:00 10.1 3 Oeste 15 Sudoeste 0 961 0.1 60
2019-05-21 05:00:00 11.3 8 Sudoeste 21 Sudoeste 0 960.7 -0.3 56
2019-05-21 04:00:00 11.6 12 Sudoeste 21 Sudoeste 0 960.6 -0.3 54
2019-05-21 03:00:00 11.9 8 Oeste 17 Sudoeste 0 960.9 0.3 52
2019-05-21 02:00:00 12.5 10 Sudoeste 13 Sudoeste 0 961 0.7 50
2019-05-21 01:00:00 13.1 6 Sudoeste 14 Sudoeste 0 960.9 1.7 48
2019-05-21 00:00:00 13.2 7 Oeste 12 Oeste 0 960.6 2 46
2019-05-20 23:00:00 14.1 6 Oeste 11 Oeste 0 960.3 2.3 42
2019-05-20 22:00:00 16.1 4 Oeste 11 Norte 0 959.2 1.4 37
2019-05-20 21:00:00 18.9 7 Norte 22 Norte 0 958.6 0.8 29
2019-05-20 20:00:00 20.6 15 Norte 27 Noroeste 0 958 0.1 24
2019-05-20 19:00:00 21.4 15 Norte 32 Norte 0 957.8 -0.6 22
2019-05-20 18:00:00 21.5 18 Norte 32 Noroeste 0 957.8 -1 22
2019-05-20 17:00:00 21.8 11 Noroeste 36 Norte 0 957.9 -1.4 21
2019-05-20 16:00:00 21.5 17 Noroeste 46 Noroeste 0 958.4 -1.2 21
2019-05-20 15:00:00 20.9 21 Noroeste 37 Noroeste 0 958.8 -1 22
2019-05-20 14:00:00 19.9 18 Noroeste 33 Noroeste 0 959.3 -0.6 23
2019-05-20 13:00:00 18.6 19 Noroeste 31 Noroeste 0 959.6 -0.5 26
2019-05-20 12:00:00 17.3 18 Noroeste 30 Noroeste 0 959.8 -0.1 31
2019-05-20 11:00:00 15.7 18 Noroeste 29 Noroeste 0 959.9 0.3 37
2019-05-20 10:00:00 14.3 9 Oeste 21 Oeste 0 960.1 1 41
2019-05-20 09:00:00 12 9 Oeste 20 Oeste 0 959.9 1.1 49
2019-05-20 08:00:00 10.1 6 Oeste 17 Sudoeste 0 959.6 0.8 59
2019-05-20 07:00:00 8.4 7 Sudoeste 24 Sudoeste 0 959.1 -0.1 67
2019-05-20 06:00:00 8.8 15 Sudoeste 25 Sudoeste 0 958.8 -0.6 68
2019-05-20 05:00:00 8.9 14 Sudoeste 24 Sudoeste 0 958.8 -0.8 70
2019-05-20 04:00:00 9.3 12 Sudoeste 20 Sudoeste 0 959.2 -0.2 69
2019-05-20 03:00:00 9.3 10 Sudoeste 21 Sudoeste 0 959.4 -0.2 69
2019-05-20 02:00:00 9.9 12 Sudoeste 22 Oeste 0 959.6 0.3 66
2019-05-20 01:00:00 10.4 12 Oeste 24 Sudoeste 0 959.4 1 62
2019-05-20 00:00:00 11.1 10 Oeste 37 Oeste 0 959.6 1.9 58
2019-05-19 23:00:00 11.9 21 Oeste 40 Oeste 0 959.3 2 55
2019-05-19 22:00:00 12.6 19 Noroeste 39 Noroeste 0 958.4 1.6 54
2019-05-19 21:00:00 13.9 26 Noroeste 44 Noroeste 0 957.7 1.1 48
2019-05-19 20:00:00 15.9 30 Noroeste 48 Noroeste 0 957.3 0.9 42
2019-05-19 19:00:00 17 28 Noroeste 48 Noroeste 0 956.8 0.4 38
2019-05-19 18:00:00 17.6 32 Noroeste 57 Noroeste 0 956.6 0.1 35
2019-05-19 17:00:00 17.6 29 Noroeste 50 Noroeste 0 956.4 0 35
2019-05-19 16:00:00 18 29 Noroeste 54 Noroeste 0 956.4 -0.2 35
2019-05-19 15:00:00 17.2 29 Noroeste 50 Noroeste 0 956.5 -0.3 37
2019-05-19 14:00:00 16.8 30 Noroeste 47 Noroeste 0 956.4 -0.2 40
2019-05-19 13:00:00 15 23 Noroeste 41 Noroeste 0 956.6 0.2 43
2019-05-19 12:00:00 13.7 27 Noroeste 49 Noroeste 0 956.8 0.8 51
2019-05-19 11:00:00 14.3 30 Noroeste 49 Noroeste 0 956.6 0.4 46
2019-05-19 10:00:00 13.5 29 Noroeste 50 Noroeste 0 956.4 0.4 48
2019-05-19 09:00:00 12.1 21 Oeste 35 Oeste 0 956 0.1 57
2019-05-19 08:00:00 10.1 13 Oeste 26 Oeste 0 956.2 0 66
2019-05-19 07:00:00 9.1 11 Oeste 22 Sudoeste 0 956 -0.4 71
2019-05-19 06:00:00 8.6 9 Oeste 17 Oeste 0 955.9 -0.9 75
2019-05-19 05:00:00 8.7 10 Oeste 20 Oeste 0 956.2 -1.2 77
2019-05-19 04:00:00 9.2 9 Oeste 18 Oeste 0 956.4 -0.9 78
2019-05-19 03:00:00 9 10 Oeste 17 Oeste 0 956.8 -0.8 79
2019-05-19 02:00:00 9 8 Oeste 19 Oeste 0 957.4 -0.5 80
2019-05-19 01:00:00 9.4 12 Oeste 21 Oeste 0 957.3 -0.3 78
2019-05-19 00:00:00 9.6 12 Oeste 24 Sudoeste 0 957.6 0.8 80
2019-05-18 23:00:00 10.3 9 Oeste 35 Oeste 0.2 957.9 2.1 82
2019-05-18 22:00:00 11.6 15 Oeste 32 Noroeste 0 957.6 2.6 59
2019-05-18 21:00:00 12.2 22 Noroeste 44 Noroeste 0 956.8 2.7 57
2019-05-18 20:00:00 15 15 Noroeste 36 Noroeste 0 955.8 1.8 41
2019-05-18 19:00:00 16 27 Noroeste 45 Noroeste 0 955 0.7 36
2019-05-18 18:00:00 18.7 21 Noroeste 38 Norte 0 954.1 -0.4 25
2019-05-18 17:00:00 18.1 19 Noroeste 39 Noroeste 0 954 -0.8 26
2019-05-18 16:00:00 18.8 21 Noroeste 41 Oeste 0 954.3 -1 28
2019-05-18 15:00:00 18.1 25 Noroeste 41 Noroeste 0 954.5 -1.2 29
2019-05-18 14:00:00 16.4 14 Noroeste 32 Norte 0 954.8 -1 37
2019-05-18 13:00:00 15.5 13 Oeste 26 Noroeste 0 955.3 -0.7 39
2019-05-18 12:00:00 14.2 11 Oeste 23 Noroeste 0 955.7 -0.2 45
2019-05-18 11:00:00 13 13 Noroeste 22 Norte 0 955.8 -0.1 47
2019-05-18 10:00:00 13.1 13 Oeste 23 Noroeste 0 956 0.5 45
2019-05-18 09:00:00 10.8 10 Oeste 22 Oeste 0 955.9 0.3 54
2019-05-18 08:00:00 9.6 12 Oeste 21 Oeste 0 955.9 0.5 61
2019-05-18 07:00:00 8.3 6 Sudoeste 11 Sudoeste 0 955.5 -0.4 72
2019-05-18 06:00:00 7.9 5 Sur 21 Sudoeste 0 955.6 -0.4 78
2019-05-18 05:00:00 7.3 7 Sudoeste 14 Sudoeste 0 955.4 -0.9 75
2019-05-18 04:00:00 7.7 10 Sudoeste 15 Sudoeste 0 955.9 -0.6 77
2019-05-18 03:00:00 8.9 12 Oeste 26 Noroeste 0 956 -0.4 66
2019-05-18 02:00:00 9.8 14 Oeste 28 Noroeste 0 956.3 0.2 62
2019-05-18 01:00:00 10.4 13 Oeste 33 Oeste 0 956.5 0.8 59
2019-05-18 00:00:00 10.9 15 Oeste 41 Oeste 0 956.4 1.2 58
2019-05-17 23:00:00 11.4 20 Oeste 41 Noroeste 0 956.1 1.3 57
2019-05-17 22:00:00 12 21 Noroeste 45 Oeste 0 955.7 1.3 55
2019-05-17 21:00:00 12.7 25 Noroeste 41 Oeste 0 955.2 1.3 53
2019-05-17 20:00:00 13 29 Noroeste 51 Oeste 0 954.8 1.3 53
2019-05-17 19:00:00 13.9 26 Noroeste 59 Noroeste 0 954.4 1.4 50
2019-05-17 18:00:00 14.3 34 Noroeste 59 Oeste 0 953.9 1.1 49
2019-05-17 17:00:00 14.5 38 Noroeste 60 Noroeste 0 953.5 1.3 50
2019-05-17 16:00:00 14.5 34 Noroeste 62 Noroeste 0 953 1.2 59
2019-05-17 15:00:00 14 35 Noroeste 60 Noroeste 0 952.8 1.8 64
2019-05-17 14:00:00 13.2 35 Noroeste 62 Noroeste 0 952.2 1.4 69
2019-05-17 13:00:00 12.8 33 Noroeste 57 Oeste 0 951.8 0.6 74
2019-05-17 12:00:00 11.8 23 Oeste 42 Oeste 0.8 951 0 80
2019-05-17 11:00:00 10.6 16 Oeste 33 Oeste 0.8 950.8 0.2 87
2019-05-17 10:00:00 9.5 13 Oeste 41 Oeste 0.4 951.2 1.4 83
2019-05-17 09:00:00 9.9 20 Oeste 41 Oeste 0 951 1.8 69
2019-05-17 08:00:00 10 25 Oeste 44 Oeste 0 950.6 1.4 73
2019-05-17 07:00:00 9.3 17 Oeste 44 Noroeste 0 949.8 1.1 86
2019-05-17 06:00:00 12.2 15 Noroeste 33 Oeste 0 949.2 1.9 72
2019-05-17 05:00:00 12.8 12 Oeste 37 Sudoeste 0 949.2 2.4 64
2019-05-17 04:00:00 12.7 30 Oeste 57 Oeste 0 948.7 0 66
2019-05-17 03:00:00 15.1 15 Sudoeste 33 Sudoeste 0 947.3 -1.6 71
2019-05-17 02:00:00 14.8 9 Sudeste 21 Sur 0 946.8 -2 74
2019-05-17 01:00:00 14.3 9 Sudoeste 24 Sudoeste 0 948.7 1.3 78
2019-05-17 00:00:00 16.2 15 Sur 31 Sudoeste 0 948.9 0.2 60
2019-05-16 23:00:00 17.1 9 Sur 50 Sudeste 0 948.8 -0.2 62
2019-05-16 22:00:00 17.8 14 Sudeste 34 Sudeste 0 947.4 -2.3 61
2019-05-16 21:00:00 18 14 Sudeste 33 Sur 0 948.7 -1.7 62
2019-05-16 20:00:00 20.8 16 Sur 44 Sur 0 949 -2.3 52
2019-05-16 19:00:00 23.2 26 Sudeste 40 Sur 0 949.7 -3 43
2019-05-16 18:00:00 27.1 8 Nordeste 26 Norte 0 950.4 -3.5 32
2019-05-16 17:00:00 25.8 12 Norte 24 Norte 0 951.3 -3.6 30
2019-05-16 16:00:00 25.2 9 Nordeste 23 Norte 0 952.7 -3.3 28
2019-05-16 15:00:00 23.9 10 Norte 22 Nordeste 0 953.9 -2.9 29
2019-05-16 14:00:00 22.6 9 Norte 18 Norte 0 954.9 -2.5 30
2019-05-16 13:00:00 20.9 6 Norte 15 Noroeste 0 956 -2 35
2019-05-16 12:00:00 18.8 6 Norte 17 Norte 0 956.8 -1.7 40
2019-05-16 11:00:00 18.3 4 Nordeste 12 Norte 0 957.4 -1.2 42
2019-05-16 10:00:00 15.5 4 Oeste 9 Norte 0 958 -0.6 56
2019-05-16 09:00:00 12.1 2 Nordeste 6 Norte 0 958.5 0 71
2019-05-16 08:00:00 10 2 Sudoeste 5 Sudoeste 0 958.6 -0.1 79
2019-05-16 07:00:00 7.8 2 Sudoeste 7 Sudoeste 0 958.6 0 81
2019-05-16 06:00:00 8.8 5 Oeste 10 Noroeste 0 958.5 -0.2 78
2019-05-16 05:00:00 9.9 7 Noroeste 13 Oeste 0 958.7 0.2 77
2019-05-16 04:00:00 10.6 7 Noroeste 12 Oeste 0 958.6 0 73
2019-05-16 03:00:00 12.4 2 Norte 10 Noroeste 0 958.7 0.5 57
2019-05-16 02:00:00 14 8 Sudoeste 13 Sudoeste 0 958.5 0.5 56
2019-05-16 01:00:00 14.7 3 Noroeste 18 Sudoeste 0 958.6 1.8 52
2019-05-16 00:00:00 16.5 11 Sudoeste 21 Sudoeste 0 958.2 1.9 47
2019-05-15 23:00:00 18.8 5 Sur 24 Sur 0 958 2.6 37
2019-05-15 22:00:00 21.3 6 Sudoeste 11 Sudoeste 0 956.8 1.8 18
2019-05-15 21:00:00 24.5 9 Norte 35 Noroeste 0 956.3 1.3 15
2019-05-15 20:00:00 27.5 23 Noroeste 38 Noroeste 0 955.4 0.1 9
2019-05-15 19:00:00 29 18 Noroeste 41 Noroeste 0 955 -1 11
2019-05-15 18:00:00 29.4 16 Noroeste 31 Noroeste 0 955 -1.7 12
2019-05-15 17:00:00 29.1 13 Noroeste 30 Noroeste 0 955.3 -1.9 12
2019-05-15 16:00:00 28.4 15 Noroeste 25 Noroeste 0 956 -1.6 13
2019-05-15 15:00:00 27.1 14 Norte 30 Noroeste 0 956.7 -1.6 14
2019-05-15 14:00:00 26.3 14 Noroeste 28 Noroeste 0 957.2 -1.1 16
2019-05-15 13:00:00 25.3 12 Noroeste 30 Oeste 0 957.6 -0.8 20
2019-05-15 12:00:00 22.9 15 Noroeste 30 Norte 0 958.3 -0.3 23
2019-05-15 11:00:00 22 13 Noroeste 30 Noroeste 0 958.3 -0.4 25
2019-05-15 10:00:00 20.7 15 Noroeste 26 Noroeste 0 958.4 -0.1 26
2019-05-15 09:00:00 17.4 12 Sudoeste 16 Sudoeste 0 958.6 0.3 38
2019-05-15 08:00:00 14.5 9 Sudoeste 18 Sudoeste 0 958.7 0.1 45
2019-05-15 07:00:00 12.1 9 Sudoeste 15 Sudoeste 0 958.5 -0.3 50
2019-05-15 06:00:00 13.3 10 Oeste 19 Sudoeste 0 958.3 -0.8 46
2019-05-15 05:00:00 13.3 7 Sudoeste 14 Sudoeste 0 958.6 -0.6 46
2019-05-15 04:00:00 14.3 9 Sudoeste 13 Sudoeste 0 958.8 -0.6 44
2019-05-15 03:00:00 16 9 Sudoeste 20 Sudoeste 0 959.1 -0.5 39
2019-05-15 02:00:00 16.5 15 Sudoeste 21 Sudoeste 0 959.2 -0.4 40
2019-05-15 01:00:00 17.2 13 Sudoeste 18 Sudoeste 0 959.4 -0.1 37
2019-05-15 00:00:00 18.1 12 Sudoeste 18 Sudoeste 0 959.6 0.4 34
2019-05-14 23:00:00 19.1 13 Sudoeste 18 Sudoeste 0 959.6 0.3 31
2019-05-14 22:00:00 19.4 4 Oeste 10 Oeste 0 959.5 0.1 31
2019-05-14 21:00:00 24.1 2 Noroeste 10 Nordeste 0 959.2 -0.5 23
2019-05-14 20:00:00 25.6 4 Nordeste 15 Nordeste 0 959.3 -0.9 19
2019-05-14 19:00:00 26.3 8 Nordeste 21 Norte 0 959.4 -1.6 18
2019-05-14 18:00:00 26.4 7 Nordeste 18 Nordeste 0 959.7 -2.1 19
2019-05-14 17:00:00 26.1 9 Nordeste 19 Nordeste 0 960.2 -2.5 19
2019-05-14 16:00:00 25.3 6 Nordeste 22 Norte 0 961 -2.7 20
2019-05-14 15:00:00 24.2 6 Nordeste 22 Nordeste 0 961.8 -2.5 21
2019-05-14 14:00:00 23.2 7 Nordeste 18 Norte 0 962.7 -2.3 22
2019-05-14 13:00:00 21.9 4 Oeste 17 Nordeste 0 963.7 -1.9 22
2019-05-14 12:00:00 20.4 4 Este 14 Nordeste 0 964.3 -1.7 25
2019-05-14 11:00:00 19.1 6 Este 13 Norte 0 965 -1.1 24
2019-05-14 10:00:00 16.4 4 Nordeste 11 Sudoeste 0 965.6 -0.4 29
2019-05-14 09:00:00 14.3 9 Sur 20 Sudoeste 0 966 -0.1 33
2019-05-14 08:00:00 11.1 14 Sudoeste 21 Sudoeste 0 966.1 0 41
2019-05-14 07:00:00 9.8 12 Sudoeste 17 Sudoeste 0 966 -0.3 43
2019-05-14 06:00:00 9.8 9 Sudoeste 12 Sudoeste 0 966.1 -0.2 43
2019-05-14 05:00:00 10.7 9 Sudoeste 17 Sudoeste 0 966.1 -0.4 40
2019-05-14 04:00:00 11.8 10 Sudoeste 18 Sudoeste 0 966.3 -0.4 37
2019-05-14 03:00:00 11.9 8 Sudoeste 18 Sudoeste 0 966.3 0 37
2019-05-14 02:00:00 12.7 9 Sudoeste 16 Sudoeste 0 966.5 0.7 48
2019-05-14 01:00:00 13.7 9 Sudoeste 12 Sudoeste 0 966.7 1.5 49
2019-05-14 00:00:00 15.3 5 Oeste 14 Sudoeste 0 966.3 2.5 37
2019-05-13 23:00:00 17.4 7 Oeste 18 Noroeste 0 965.8 2.4 32
2019-05-13 22:00:00 20 4 Este 17 Sur 0 965.2 1.9 23
2019-05-13 21:00:00 22.7 8 Noroeste 17 Norte 0 963.8 0.5 11
2019-05-13 20:00:00 25.9 9 Noroeste 20 Oeste 0 963.4 -0.1 9
2019-05-13 19:00:00 26.3 13 Noroeste 22 Noroeste 0 963.3 -0.5 8
2019-05-13 18:00:00 26.7 7 Noroeste 23 Noroeste 0 963.3 -1.3 9
2019-05-13 17:00:00 26.1 10 Oeste 26 Noroeste 0 963.5 -1.6 11
2019-05-13 16:00:00 25 12 Noroeste 23 Oeste 0 963.8 -2 11
2019-05-13 15:00:00 23.8 10 Noroeste 24 Noroeste 0 964.6 -1.6 13
2019-05-13 14:00:00 22.9 8 Noroeste 24 Norte 0 965.1 -1.7 14
2019-05-13 13:00:00 21.3 10 Oeste 27 Oeste 0 965.8 -1.3 18
2019-05-13 12:00:00 19.4 11 Noroeste 23 Noroeste 0 966.2 -1.1 24
2019-05-13 11:00:00 17.5 15 Noroeste 24 Noroeste 0 966.8 -0.6 28
2019-05-13 10:00:00 15.9 12 Oeste 26 Sudoeste 0 967.1 -0.4 33
2019-05-13 09:00:00 13.5 11 Oeste 21 Oeste 0 967.3 0.1 40
2019-05-13 08:00:00 11.4 10 Sudoeste 17 Oeste 0 967.4 -0.2 48
2019-05-13 07:00:00 10 9 Sudoeste 16 Sudoeste 0 967.5 -0.3 52
2019-05-13 06:00:00 10.5 10 Sudoeste 19 Sudoeste 0 967.2 -0.6 50
2019-05-13 05:00:00 11.1 10 Sudoeste 19 Sudoeste 0 967.6 -0.3 49
2019-05-13 04:00:00 11.5 8 Sudoeste 19 Sudoeste 0 967.8 -0.4 48
2019-05-13 03:00:00 12.2 9 Oeste 22 Oeste 0 967.8 -0.1 47
2019-05-13 02:00:00 12.9 10 Oeste 22 Oeste 0 967.9 0.2 46
2019-05-13 01:00:00 14.2 9 Oeste 29 Noroeste 0 968.2 1.2 36
2019-05-13 00:00:00 15.5 18 Oeste 30 Oeste 0 967.9 1.4 32
2019-05-12 23:00:00 16.6 15 Noroeste 30 Oeste 0 967.7 1.6 29
2019-05-12 22:00:00 17.7 14 Oeste 23 Noroeste 0 967 0.5 25
2019-05-12 21:00:00 19.9 14 Noroeste 39 Noroeste 0 966.5 -0.4 22
2019-05-12 20:00:00 22.7 21 Noroeste 38 Noroeste 0 966.1 -1.3 17
2019-05-12 19:00:00 24 22 Noroeste 37 Noroeste 0 966.5 -1.7 14
2019-05-12 18:00:00 24.3 21 Noroeste 35 Noroeste 0 966.9 -2.2 14
2019-05-12 17:00:00 23.8 17 Noroeste 33 Noroeste 0 967.4 -2.1 15
2019-05-12 16:00:00 22.7 15 Noroeste 29 Noroeste 0 968.2 -1.9 17
2019-05-12 15:00:00 21.5 16 Noroeste 36 Oeste 0 969.1 -1.5 20
2019-05-12 14:00:00 20.4 20 Noroeste 37 Noroeste 0 969.5 -1.5 22
2019-05-12 13:00:00 19 21 Noroeste 33 Noroeste 0 970.1 -1.4 23
2019-05-12 12:00:00 17.6 15 Noroeste 31 Norte 0 970.6 -1 25
2019-05-12 11:00:00 16 18 Noroeste 35 Noroeste 0 971 -0.8 27
2019-05-12 10:00:00 14.5 26 Noroeste 38 Noroeste 0 971.5 -0.1 29
2019-05-12 09:00:00 12.2 14 Noroeste 23 Noroeste 0 971.6 0.5 35
2019-05-12 08:00:00 9.4 3 Sur 10 Noroeste 0 971.8 0.9 49
2019-05-12 07:00:00 7.3 7 Oeste 12 Oeste 0 971.6 0.6 57
2019-05-12 06:00:00 9.6 5 Oeste 21 Oeste 0 971.1 0 49
2019-05-12 05:00:00 10.1 12 Sudoeste 22 Oeste 0 970.9 0.1 49
2019-05-12 04:00:00 10.6 12 Oeste 24 Oeste 0 971 0.4 49
2019-05-12 03:00:00 10.9 9 Oeste 35 Oeste 0 971.1 0.6 49
2019-05-12 02:00:00 12.2 17 Oeste 42 Oeste 0 970.8 0.2 43
2019-05-12 01:00:00 13.1 15 Oeste 40 Noroeste 0 970.6 0.6 36
2019-05-12 00:00:00 14.3 25 Noroeste 43 Noroeste 0 970.5 1.2 36
2019-05-11 23:00:00 14.7 21 Oeste 36 Noroeste 0 970.6 2 40
2019-05-11 22:00:00 15.8 17 Noroeste 36 Noroeste 0 970 2 36
2019-05-11 21:00:00 17.5 23 Noroeste 41 Noroeste 0 969.3 1.9 32
2019-05-11 20:00:00 19.4 30 Noroeste 49 Norte 0 968.6 1.2 28
2019-05-11 19:00:00 20.9 27 Noroeste 48 Noroeste 0 968 0.6 27
2019-05-11 18:00:00 21.7 24 Noroeste 47 Noroeste 0 967.4 -0.3 27
2019-05-11 17:00:00 22.1 23 Noroeste 45 Noroeste 0 967.4 -0.4 30
2019-05-11 16:00:00 21.9 21 Noroeste 43 Oeste 0 967.4 -0.3 32
2019-05-11 15:00:00 21.4 22 Oeste 41 Oeste 0 967.7 0.3 34
2019-05-11 14:00:00 20.2 25 Noroeste 40 Oeste 0 967.8 1 39
2019-05-11 13:00:00 19.4 21 Noroeste 33 Noroeste 0 967.7 1.2 44
2019-05-11 12:00:00 19.5 19 Noroeste 38 Noroeste 0 967.4 1.6 46
2019-05-11 11:00:00 18 26 Noroeste 44 Noroeste 0 966.8 1.4 56
2019-05-11 10:00:00 17.5 18 Noroeste 35 Oeste 0 966.5 2.2 62
2019-05-11 09:00:00 16.4 18 Noroeste 27 Noroeste 0 965.8 2 69
2019-05-11 08:00:00 14.9 5 Sudoeste 12 Oeste 0 965.4 2.1 81
2019-05-11 07:00:00 14.3 4 Sur 18 Oeste 0 964.3 2.1 80
2019-05-11 06:00:00 15.2 11 Oeste 20 Oeste 0 963.8 2.1 77
2019-05-11 05:00:00 15.4 8 Oeste 14 Oeste 0 963.3 1.5 81
2019-05-11 04:00:00 17.2 3 Nordeste 26 Sudoeste 0 962.2 0.4 74
2019-05-11 03:00:00 17.4 17 Sudoeste 27 Sudoeste 0 961.7 -0.6 76
2019-05-11 02:00:00 17.5 8 Sur 17 Sudoeste 0 961.8 0.9 77
2019-05-11 01:00:00 17.4 17 Sudoeste 43 Oeste 1.2 961.8 1.3 79
2019-05-11 00:00:00 20.5 13 Oeste 31 Sudoeste 0 962.3 2.9 55
2019-05-10 23:00:00 22.4 15 Sudoeste 25 Oeste 0 960.9 2.2 39
2019-05-10 22:00:00 22.7 17 Noroeste 35 Oeste 0 960.5 2.2 35
2019-05-10 21:00:00 24.6 5 Norte 19 Norte 0 959.4 1.2 36
2019-05-10 20:00:00 25.5 12 Norte 26 Oeste 0 958.7 0.6 33
2019-05-10 19:00:00 29.2 13 Oeste 27 Oeste 0 958.3 -0.2 21
2019-05-10 18:00:00 29.6 13 Oeste 32 Oeste 0 958.2 -0.4 21
2019-05-10 17:00:00 29.7 14 Oeste 30 Oeste 0 958.1 -0.7 20
2019-05-10 16:00:00 29.8 11 Sudoeste 33 Oeste 0 958.5 -0.7 20
2019-05-10 15:00:00 29.1 16 Oeste 35 Oeste 0 958.6 -0.8 22
2019-05-10 14:00:00 28.1 16 Oeste 31 Oeste 0 958.8 -0.4 25
2019-05-10 13:00:00 27.1 13 Oeste 36 Noroeste 0 959.2 0.1 28
2019-05-10 12:00:00 26.4 16 Noroeste 34 Oeste 0 959.4 0.4 28
2019-05-10 11:00:00 24.9 19 Oeste 34 Oeste 0 959.2 0.3 34
2019-05-10 10:00:00 23 18 Oeste 32 Oeste 0 959.1 0.6 44
2019-05-10 09:00:00 17.9 5 Noroeste 19 Norte 0 959 0.7 57
2019-05-10 08:00:00 16.1 4 Noroeste 12 Nordeste 0 958.9 0.8 60
2019-05-10 07:00:00 17.4 3 Noroeste 14 Oeste 0 958.5 0.9 62
2019-05-10 06:00:00 17.3 4 Sudeste 11 Noroeste 0 958.3 0.6 63
2019-05-10 05:00:00 17.5 3 Este 21 Sudoeste 0 958.1 0.4 61
2019-05-10 04:00:00 18.6 14 Sudoeste 23 Sudoeste 0 957.6 -0.1 58
2019-05-10 03:00:00 19 12 Oeste 24 Sudoeste 0 957.7 0.2 55
2019-05-10 02:00:00 19.1 15 Sudoeste 22 Sudoeste 0 957.7 0.4 52
2019-05-10 01:00:00 16.9 6 Sudoeste 10 Sudoeste 0 957.7 0.8 45
2019-05-10 00:00:00 17.4 0 Calma 10 Oeste 0 957.5 0.8 34
2019-05-09 23:00:00 19.3 4 Oeste 9 Sudoeste 0 957.3 1 30
2019-05-09 22:00:00 20.8 3 Oeste 6 Oeste 0 956.9 0.5 28
2019-05-09 21:00:00 21.7 2 Norte 10 Nordeste 0 956.7 0 24
2019-05-09 20:00:00 22.7 5 Nordeste 16 Nordeste 0 956.3 -0.7 21
2019-05-09 19:00:00 24.7 8 Norte 20 Nordeste 0 956.4 -1.2 18
2019-05-09 18:00:00 24.5 8 Norte 22 Norte 0 956.7 -1.4 17
2019-05-09 17:00:00 24.2 11 Norte 25 Noroeste 0 957 -1.7 17
2019-05-09 16:00:00 24.2 14 Norte 26 Norte 0 957.6 -1.5 17
2019-05-09 15:00:00 23.8 16 Noroeste 32 Oeste 0 958.1 -1.5 15
2019-05-09 14:00:00 23 16 Noroeste 35 Oeste 0 958.7 -0.9 16
2019-05-09 13:00:00 21.6 12 Noroeste 30 Noroeste 0 959.1 -- 21
2019-05-09 12:00:00 19.9 15 Oeste 35 Oeste 0 959.6 -- 27
2019-05-09 11:00:00 18 -- -- -- -- -- 959.6 -- 32
2019-05-09 10:00:00 -- -- -- -- -- -- -- -- --
2019-05-09 09:00:00 -- -- -- -- -- -- -- -- --
2019-05-09 08:00:00 -- -- -- -- -- -- -- -- --
2019-05-09 07:00:00 -- -- -- -- -- -- -- -- --
2019-05-09 06:00:00 -- -- -- -- -- -- -- -- --
2019-05-09 05:00:00 -- -- -- -- -- -- -- -- --
2019-05-09 04:00:00 14.4 7 Norte 25 Oeste 0 957.2 1.2 38
2019-05-09 03:00:00 15.8 12 Noroeste 21 Noroeste 0 956.7 0.7 40
2019-05-09 02:00:00 17.2 11 Oeste 23 Oeste 0 956.4 1.2 50
2019-05-09 01:00:00 18.1 14 Oeste 37 Oeste 0 956 1.5 45
2019-05-09 00:00:00 19.3 22 Oeste 40 Oeste 0 956 1.8 38
2019-05-08 23:00:00 20.3 18 Oeste 35 Oeste 0 955.2 1.2 33
2019-05-08 22:00:00 21 19 Oeste 44 Sudoeste 0 954.5 0.8 31
2019-05-08 21:00:00 22 26 Oeste 46 Oeste 0 954.2 0.1 29
2019-05-08 20:00:00 23.2 23 Oeste 57 Oeste 0 954 -0.5 29
2019-05-08 19:00:00 24.5 26 Oeste 48 Oeste 0 953.7 -1.2 27
2019-05-08 18:00:00 25.3 23 Sudoeste 53 Oeste 0 954.1 -0.9 29
2019-05-08 17:00:00 25 20 Sudoeste 44 Oeste 0 954.5 -0.6 31
2019-05-08 16:00:00 25.6 19 Oeste 44 Oeste 0 954.9 -0.8 31
2019-05-08 15:00:00 25.2 19 Oeste 42 Oeste 0 955 -1.1 32
2019-05-08 14:00:00 24.5 23 Sudoeste 42 Oeste 0 955.1 -1.5 31
2019-05-08 13:00:00 23.9 21 Sudoeste 36 Sudoeste 0 955.7 -0.9 31
2019-05-08 12:00:00 23.7 18 Sudoeste 33 Sudoeste 0 956.1 -0.9 32
2019-05-08 11:00:00 20.7 8 Sudoeste 13 Sudoeste 0 956.6 -0.2 45
2019-05-08 10:00:00 18 2 Sur 6 Sur 0 956.6 -0.1 55
2019-05-08 09:00:00 17.3 2 Oeste 8 Oeste 0 957 0 57
2019-05-08 08:00:00 17.2 3 Sudoeste 9 Norte 0 956.8 -0.2 54
2019-05-08 07:00:00 18.4 2 Oeste 18 Oeste 0 956.7 -0.4 48
2019-05-08 06:00:00 20 12 Sudoeste 22 Sudoeste 0 957 -0.6 41
2019-05-08 05:00:00 20.6 12 Sudoeste 21 Sudoeste 0 957 -1.3 38
2019-05-08 04:00:00 19.3 9 Sudoeste 15 Sudoeste 0 957.1 -1.4 41
2019-05-08 03:00:00 18.6 4 Sur 12 Sudoeste 0 957.6 -1.3 47
2019-05-08 02:00:00 18.7 8 Sur 12 Sur 0 958.3 -0.6 49
2019-05-08 01:00:00 19.2 9 Sudoeste 17 Sudoeste 0 958.5 -0.1 50
2019-05-08 00:00:00 19.6 11 Sur 18 Sur 0 958.9 0.5 52
2019-05-07 23:00:00 20 5 Sur 12 Sudoeste 0 958.9 0.8 52
2019-05-07 22:00:00 21 4 Oeste 15 Sur 0 958.6 0.5 50
2019-05-07 21:00:00 22.2 7 Sudeste 18 Sudeste 0 958.4 0.2 47
2019-05-07 20:00:00 24.3 9 Sudeste 16 Sudeste 0 958.1 -0.5 40
2019-05-07 19:00:00 25.3 10 Nordeste 21 Nordeste 0 958.1 -1.6 33
2019-05-07 18:00:00 26.8 9 Nordeste 21 Nordeste 0 958.2 -1.8 27
2019-05-07 17:00:00 25.5 10 Norte 18 Norte 0 958.6 -2.4 24
2019-05-07 16:00:00 25.8 8 Nordeste 21 Norte 0 959.7 -2.1 24
2019-05-07 15:00:00 24.8 10 Norte 24 Norte 0 960 -2.3 26
2019-05-07 14:00:00 23.4 9 Norte 15 Norte 0 961 -1.4 28
2019-05-07 13:00:00 22.4 6 Nordeste 14 Norte 0 961.8 -0.9 31
2019-05-07 12:00:00 18.8 8 Nordeste 15 Nordeste 0 962.3 -0.3 38
2019-05-07 11:00:00 16.9 5 Norte 13 Norte 0 962.4 0.2 43
2019-05-07 10:00:00 14.5 6 Norte 10 Nordeste 0 962.7 0.8 50
2019-05-07 09:00:00 12.3 2 Oeste 5 Sudeste 0 962.6 0.6 56
2019-05-07 08:00:00 9.7 0 Calma 4 Norte 0 962.2 0 63
2019-05-07 07:00:00 9.9 3 Sur 10 Oeste 0 961.9 -0.3 60
2019-05-07 06:00:00 11.6 4 Noroeste 16 Sudoeste 0 962 -0.3 53
2019-05-07 05:00:00 13.1 9 Sudoeste 21 Sudoeste 0 962.2 -0.8 47
2019-05-07 04:00:00 13.5 14 Sudoeste 24 Sur 0 962.2 -0.9 45
2019-05-07 03:00:00 13.9 16 Sudoeste 23 Sudoeste 0 962.3 -0.7 47
2019-05-07 02:00:00 14.1 9 Sudoeste 15 Sudoeste 0 963 -0.1 48
2019-05-07 01:00:00 14.9 10 Sur 17 Sur 0 963.1 0.7 44
2019-05-07 00:00:00 14.7 12 Sudoeste 18 Sudoeste 0 963 1.2 41
2019-05-06 23:00:00 13.6 4 Sur 8 Sudoeste 0 963.1 1.7 34
2019-05-06 22:00:00 15.6 4 Oeste 9 Oeste 0 962.4 0.7 33
2019-05-06 21:00:00 20 3 Norte 8 Nordeste 0 961.8 -0.2 20
2019-05-06 20:00:00 20.7 5 Este 11 Este 0 961.4 -1 19
2019-05-06 19:00:00 21.5 5 Este 21 Nordeste 0 961.7 -1.3 17
2019-05-06 18:00:00 22.1 9 Nordeste 25 Norte 0 962 -1.3 17
2019-05-06 17:00:00 21.3 12 Nordeste 25 Norte 0 962.4 -1.6 17
2019-05-06 16:00:00 20.4 13 Norte 23 Norte 0 963 -1.5 17
2019-05-06 15:00:00 20.5 9 Este 26 Norte 0 963.3 -1.6 16
2019-05-06 14:00:00 18.4 9 Nordeste 19 Norte 0 964 -1 22
2019-05-06 13:00:00 17 6 Este 16 Norte 0 964.5 -0.7 25
2019-05-06 12:00:00 14.6 5 Noroeste 13 Noroeste 0 964.9 -0.2 28
2019-05-06 11:00:00 13.3 5 Nordeste 13 Norte 0 965 0.1 30
2019-05-06 10:00:00 10.3 8 Norte 14 Noroeste 0 965.2 0.6 36
2019-05-06 09:00:00 7.3 7 Sudoeste 14 Sudoeste 0 965.1 0.7 47
2019-05-06 08:00:00 3.5 10 Sudoeste 13 Sudoeste 0 964.9 0.8 60
2019-05-06 07:00:00 1.5 3 Sudoeste 6 Sudoeste 0 964.6 0.8 65
2019-05-06 06:00:00 2.9 4 Oeste 13 Norte 0 964.4 0.8 59
2019-05-06 05:00:00 3.6 3 Norte 9 Oeste 0 964.1 0.3 58
2019-05-06 04:00:00 5.6 0 Calma 12 Oeste 0 963.8 0.3 51
2019-05-06 03:00:00 7.7 8 Sudoeste 16 Oeste 0 963.6 0.3 44
2019-05-06 02:00:00 8.8 6 Oeste 16 Sudoeste 0 963.8 0.4 40
2019-05-06 01:00:00 9.6 12 Oeste 31 Noroeste 0 963.5 0.7 36
2019-05-06 00:00:00 10.9 20 Oeste 31 Oeste 0 963.3 1.1 30
2019-05-05 23:00:00 11.2 10 Oeste 21 Oeste 0 963.4 1.9 27
2019-05-05 22:00:00 12.1 7 Oeste 28 Oeste 0 962.8 1.4 20
2019-05-05 21:00:00 14.6 13 Noroeste 39 Oeste 0 962.2 0.7 14
2019-05-05 20:00:00 17.2 22 Noroeste 38 Noroeste 0 961.5 -0.1 11
2019-05-05 19:00:00 18.4 22 Noroeste 49 Noroeste 0 961.4 -0.8 11
2019-05-05 18:00:00 18.6 26 Noroeste 49 Noroeste 0 961.5 -1.2 11
2019-05-05 17:00:00 18.1 26 Noroeste 45 Oeste 0 961.6 -1.2 13
2019-05-05 16:00:00 17.3 30 Noroeste 54 Noroeste 0 962.2 -1.1 14
2019-05-05 15:00:00 16.3 21 Noroeste 44 Noroeste 0 962.7 -0.8 15
2019-05-05 14:00:00 15 24 Noroeste 47 Noroeste 0 962.8 -0.5 18
2019-05-05 13:00:00 13.8 24 Noroeste 41 Noroeste 0 963.3 -0.3 20
2019-05-05 12:00:00 12.1 23 Noroeste 42 Noroeste 0 963.5 0.1 25
2019-05-05 11:00:00 10.8 23 Noroeste 39 Noroeste 0 963.3 0.3 29
2019-05-05 10:00:00 9.1 18 Noroeste 35 Noroeste 0 963.6 1.5 35
2019-05-05 09:00:00 7.6 21 Noroeste 34 Noroeste 0 963.4 1.8 42
2019-05-05 08:00:00 6.8 14 Oeste 30 Oeste 0 963 1.7 49
2019-05-05 07:00:00 6.6 12 Noroeste 36 Oeste 0 962.1 0.9 56
2019-05-05 06:00:00 7.5 20 Oeste 46 Noroeste 0 961.6 1 55
2019-05-05 05:00:00 8.2 22 Noroeste 48 Oeste 0 961.3 0.3 55
2019-05-05 04:00:00 9.1 25 Noroeste 50 Oeste 0 961.2 0.4 54
2019-05-05 03:00:00 9.7 29 Oeste 49 Oeste 0 960.6 0.1 53
2019-05-05 02:00:00 10.2 28 Oeste 59 Oeste 0 961 1 57
2019-05-05 01:00:00 11.2 29 Oeste 52 Oeste 0 960.8 1 56
2019-05-05 00:00:00 12.1 24 Oeste 49 Oeste 0 960.5 2 50
2019-05-04 23:00:00 12.7 26 Oeste 44 Oeste 0 960 2.4 43
2019-05-04 22:00:00 13.7 28 Noroeste 49 Noroeste 0 959.8 2.3 38
2019-05-04 21:00:00 15.8 23 Noroeste 46 Noroeste 0 958.5 1.1 36
2019-05-04 20:00:00 17.6 26 Noroeste 44 Noroeste 0 957.6 -0.1 31
2019-05-04 19:00:00 18.8 27 Noroeste 48 Noroeste 0 957.5 -0.6 28
2019-05-04 18:00:00 19 32 Noroeste 49 Noroeste 0 957.4 -1.1 27
2019-05-04 17:00:00 19.7 22 Noroeste 45 Noroeste 0 957.7 -1 24
2019-05-04 16:00:00 18.6 22 Noroeste 40 Noroeste 0 958.1 -1.2 28
2019-05-04 15:00:00 18.3 19 Oeste 40 Norte 0 958.5 -1.1 29
2019-05-04 14:00:00 16.8 20 Noroeste 41 Noroeste 0 958.7 -1 33
2019-05-04 13:00:00 15.6 19 Noroeste 38 Noroeste 0 959.3 -0.6 34
2019-05-04 12:00:00 14.4 19 Noroeste 42 Noroeste 0 959.6 -0.4 39
2019-05-04 11:00:00 11.8 21 Noroeste 36 Oeste 0 959.7 0.1 49
2019-05-04 10:00:00 10.5 21 Oeste 35 Oeste 0 959.9 0.7 54
2019-05-04 09:00:00 9.6 15 Oeste 27 Oeste 0 960 0.8 60
2019-05-04 08:00:00 7.6 9 Oeste 18 Oeste 0 959.6 0.2 68
2019-05-04 07:00:00 7 10 Sudoeste 16 Oeste 0 959.2 -0.1 72
2019-05-04 06:00:00 6.9 9 Oeste 20 Sudoeste 0 959.2 -0.5 73
2019-05-04 05:00:00 7.3 9 Sudoeste 20 Sudoeste 0 959.4 -0.5 72
2019-05-04 04:00:00 7.7 11 Oeste 19 Oeste 0 959.3 -0.5 70
2019-05-04 03:00:00 8 10 Sudoeste 21 Oeste 0 959.7 -0.2 66
2019-05-04 02:00:00 8.7 10 Oeste 30 Oeste 0 959.9 0.3 62
2019-05-04 01:00:00 9.1 15 Oeste 32 Oeste 0 959.8 1.2 58
2019-05-04 00:00:00 9.6 12 Oeste 37 Oeste 0 959.9 1.9 57
2019-05-03 23:00:00 10.5 20 Noroeste 38 Noroeste 0 959.6 2.2 53
2019-05-03 22:00:00 11.7 23 Noroeste 48 Noroeste 0 958.6 1.6 52
2019-05-03 21:00:00 13.4 23 Noroeste 41 Noroeste 0 958 1.1 47
2019-05-03 20:00:00 14.9 22 Noroeste 42 Noroeste 0 957.4 0 42
2019-05-03 19:00:00 14.9 22 Noroeste 40 Noroeste 0 957 -1.2 41
2019-05-03 18:00:00 14.6 22 Noroeste 39 Noroeste 0 956.9 -2 42
2019-05-03 17:00:00 13.4 19 Noroeste 32 Noroeste 0 957.4 -1.9 51
2019-05-03 16:00:00 11.8 16 Oeste 30 Noroeste 0 958.2 -1.4 59
2019-05-03 15:00:00 11.9 18 Noroeste 38 Noroeste 0 958.9 -0.8 62
2019-05-03 14:00:00 11.8 20 Noroeste 39 Noroeste 0 959.3 -0.3 53
2019-05-03 13:00:00 11.5 22 Noroeste 35 Oeste 0 959.6 0.3 53
2019-05-03 12:00:00 11.1 17 Noroeste 34 Noroeste 0 959.7 0.7 55
2019-05-03 11:00:00 11 17 Noroeste 30 Oeste 0 959.6 0.5 61
2019-05-03 10:00:00 10.6 9 Oeste 18 Oeste 0 959.3 0.1 73
2019-05-03 09:00:00 9.4 9 Sudoeste 20 Sudoeste 0 959 -0.6 79
2019-05-03 08:00:00 9.2 9 Oeste 17 Sudoeste 0 959.1 -1 81
2019-05-03 07:00:00 8.9 10 Sudoeste 25 Oeste 1.2 959.2 -1.4 84
2019-05-03 06:00:00 10.6 8 Oeste 21 Noroeste 0 959.6 -1.6 61
2019-05-03 05:00:00 11 9 Oeste 14 Oeste 0 960.1 -1.5 53
2019-05-03 04:00:00 11.2 10 Oeste 17 Oeste 0 960.6 -0.9 53
2019-05-03 03:00:00 11.5 8 Noroeste 14 Noroeste 0 961.2 -0.5 52
2019-05-03 02:00:00 11.8 7 Noroeste 11 Noroeste 0 961.6 0.5 54
2019-05-03 01:00:00 12.6 3 Nordeste 8 Noroeste 0 961.5 1.5 53
2019-05-03 00:00:00 13 4 Noroeste 18 Norte 0 961.7 2.5 50
2019-05-02 23:00:00 14.1 5 Nordeste 27 Noroeste 0 961.1 2.4 47
2019-05-02 22:00:00 16.1 15 Noroeste 26 Noroeste 0 960 1 40
2019-05-02 21:00:00 18.7 14 Noroeste 24 Noroeste 0 959.2 0.1 38
2019-05-02 20:00:00 20.8 10 Noroeste 19 Noroeste 0 958.7 -0.9 32
2019-05-02 19:00:00 21.7 9 Norte 18 Norte 0 959 -1.3 32
2019-05-02 18:00:00 21.3 7 Noroeste 22 Noroeste 0 959.1 -1.9 32
2019-05-02 17:00:00 21.2 6 Noroeste 33 Norte 0 959.6 -2 33
2019-05-02 16:00:00 20.9 6 Noroeste 21 Noroeste 0 960.3 -1.9 34
2019-05-02 15:00:00 20.1 10 Nordeste 23 Nordeste 0 961 -1.6 38
2019-05-02 14:00:00 19.4 6 Norte 19 Norte 0 961.6 -1.2 42
2019-05-02 13:00:00 17.9 9 Noroeste 24 Noroeste 0 962.2 -0.8 45
2019-05-02 12:00:00 16.3 8 Noroeste 20 Noroeste 0 962.6 -0.1 51
2019-05-02 11:00:00 14.9 7 Noroeste 16 Noroeste 0 962.8 0.4 61
2019-05-02 10:00:00 12.7 10 Oeste 23 Sudoeste 0 963 1.1 69
2019-05-02 09:00:00 11.4 11 Oeste 19 Oeste 0 962.7 1.1 76
2019-05-02 08:00:00 10 9 Oeste 21 Oeste 0 962.4 0.6 82
2019-05-02 07:00:00 10.3 10 Oeste 19 Oeste 0 961.9 0.4 85
2019-05-02 06:00:00 10.9 11 Sudoeste 23 Oeste 1.2 961.6 -0.2 89
2019-05-02 05:00:00 12.2 16 Oeste 24 Oeste 0.2 961.8 0.5 73
2019-05-02 04:00:00 13.1 13 Oeste 22 Oeste 0 961.5 1.3 63
2019-05-02 03:00:00 14.3 11 Oeste 41 Noroeste 0 961.8 2 57
2019-05-02 02:00:00 16 18 Noroeste 31 Noroeste 0 961.3 1.9 43
2019-05-02 01:00:00 17.1 22 Noroeste 35 Noroeste 0 960.2 1.7 49
2019-05-02 00:00:00 17.8 10 Oeste 16 Sudoeste 0 959.8 2 53
2019-05-01 23:00:00 17.9 5 Sudoeste 14 Sur 0 959.4 1.8 53
2019-05-01 22:00:00 18.9 5 Sur 18 Sudeste 0 958.5 0.9 49
2019-05-01 21:00:00 21.7 4 Nordeste 8 Nordeste 0 957.8 0.2 39
2019-05-01 20:00:00 24 4 Nordeste 12 Este 0 957.6 -0.4 21
2019-05-01 19:00:00 23.2 7 Noroeste 18 Norte 0 957.6 -1.2 21
2019-05-01 18:00:00 23.8 10 Norte 21 Norte 0 957.6 -1.9 21
2019-05-01 17:00:00 23.1 8 Norte 17 Norte 0 958 -2 22
2019-05-01 16:00:00 22.7 9 Norte 20 Norte 0 958.8 -1.8 23
2019-05-01 15:00:00 22.4 8 Nordeste 21 Norte 0 959.5 -1.6 23
2019-05-01 14:00:00 20.7 6 Nordeste 17 Nordeste 0 960 -1.1 24
2019-05-01 13:00:00 19.5 8 Norte 20 Norte 0 960.6 -0.6 26
2019-05-01 12:00:00 18.5 9 Norte 18 Norte 0 961.1 -0.1 27
2019-05-01 11:00:00 17.9 5 Noroeste 16 Norte 0 961.1 0.3 27
2019-05-01 10:00:00 15.2 5 Sudoeste 16 Sudoeste 0 961.2 0.9 33
2019-05-01 09:00:00 11.4 9 Sudoeste 21 Sudoeste 0 961.2 1 50
2019-05-01 08:00:00 9.1 12 Sudoeste 17 Sudoeste 0 960.8 0.3 57
2019-05-01 07:00:00 8.6 9 Sudoeste 16 Sudoeste 0 960.3 -0.3 62
2019-05-01 06:00:00 9 8 Sudoeste 12 Sudoeste 0 960.2 -0.8 60
2019-05-01 05:00:00 8.3 3 Sudoeste 8 Oeste 0 960.5 -0.7 57
2019-05-01 04:00:00 10 3 Oeste 14 Sudoeste 0 960.6 -0.5 51
2019-05-01 03:00:00 12.1 8 Oeste 13 Oeste 0 961 -0.1 41
2019-05-01 02:00:00 14 10 Sudoeste 21 Sudoeste 0 961.2 0 33
2019-05-01 01:00:00 14.4 15 Sudoeste 22 Sudoeste 0 961.1 0.5 33
2019-05-01 00:00:00 14.6 5 Sudoeste 18 Sudoeste 0 961.1 1 36
2019-04-30 23:00:00 14.2 8 Oeste 12 Oeste 0 961.2 1.3 39
2019-04-30 22:00:00 16.3 6 Oeste 9 Oeste 0 960.6 0.4 33
2019-04-30 21:00:00 20.5 2 Noroeste 18 Norte 0 960.1 -0.4 25
2019-04-30 20:00:00 22.5 12 Norte 26 Norte 0 959.9 -1.1 17
2019-04-30 19:00:00 23.3 13 Noroeste 31 Norte 0 960.2 -1.3 16
2019-04-30 18:00:00 23.4 14 Noroeste 28 Noroeste 0 960.5 -1.5 14
2019-04-30 17:00:00 23 15 Noroeste 36 Noroeste 0 961 -1.5 13
2019-04-30 16:00:00 22.5 14 Noroeste 38 Norte 0 961.5 -1.6 13
2019-04-30 15:00:00 21.7 15 Noroeste 32 Noroeste 0 962 -1.3 14
2019-04-30 14:00:00 20.8 15 Noroeste 30 Noroeste 0 962.5 -0.9 21
2019-04-30 13:00:00 19.8 17 Noroeste 31 Norte 0 963.1 -0.4 24
2019-04-30 12:00:00 19 18 Noroeste 32 Noroeste 0 963.3 -0.2 28
2019-04-30 11:00:00 17.1 16 Noroeste 27 Oeste 0 963.4 0.7 37
2019-04-30 10:00:00 13.3 5 Nordeste 12 Nordeste 0 963.5 1.2 58
2019-04-30 09:00:00 11.7 8 Norte 16 Noroeste 0 963.5 1.2 59
2019-04-30 08:00:00 8.4 6 Oeste 9 Oeste 0 962.7 0.5 74
2019-04-30 07:00:00 8.2 2 Sudoeste 9 Oeste 0 962.3 0.1 70
2019-04-30 06:00:00 9.5 8 Oeste 10 Oeste 0 962.3 0.2 65
2019-04-30 05:00:00 10.2 8 Oeste 11 Oeste 0 962.2 -0.2 59
2019-04-30 04:00:00 13.1 5 Oeste 18 Sudoeste 0 962.2 -0.1 47
2019-04-30 03:00:00 14.9 14 Sudoeste 20 Sudoeste 0 962.1 -0.3 39
2019-04-30 02:00:00 14.3 14 Sudoeste 25 Sudoeste 0 962.4 0.1 43
2019-04-30 01:00:00 14.4 17 Sudoeste 24 Sudoeste 0 962.3 0.3 44
2019-04-30 00:00:00 14.8 10 Sudoeste 20 Sudoeste 0 962.4 1.1 47
2019-04-29 23:00:00 14.7 5 Sudoeste 14 Sudoeste 0 962.3 1 49
2019-04-29 22:00:00 15.8 3 Oeste 6 Oeste 0 962 0.3 49
2019-04-29 21:00:00 19.6 2 Norte 10 Noroeste 0 961.3 -0.6 34
2019-04-29 20:00:00 22 8 Norte 21 Norte 0 961.3 -0.8 26
2019-04-29 19:00:00 21.6 10 Noroeste 20 Noroeste 0 961.7 -0.9 29
2019-04-29 18:00:00 21.5 13 Norte 26 Norte 0 961.9 -1.3 28
2019-04-29 17:00:00 22.6 13 Noroeste 30 Norte 0 962.1 -1.9 25
2019-04-29 16:00:00 21.5 11 Norte 27 Oeste 0 962.6 -2.3 29
2019-04-29 15:00:00 21 14 Noroeste 26 Noroeste 0 963.2 -2.2 28
2019-04-29 14:00:00 19.8 13 Noroeste 27 Oeste 0 964 -1.7 31
2019-04-29 13:00:00 18.5 14 Noroeste 25 Noroeste 0 964.9 -0.9 35
2019-04-29 12:00:00 17.2 15 Noroeste 30 Noroeste 0 965.4 -0.2 37
2019-04-29 11:00:00 15.9 18 Noroeste 30 Noroeste 0 965.7 0.3 40
2019-04-29 10:00:00 14.6 15 Noroeste 27 Noroeste 0 965.8 0.8 42
2019-04-29 09:00:00 11 2 Sudeste 6 Este 0 965.6 0.6 54
2019-04-29 08:00:00 8.7 4 Oeste 9 Oeste 0 965.4 0.3 62
2019-04-29 07:00:00 8.1 3 Sudoeste 8 Sudoeste 0 965 -0.3 62
2019-04-29 06:00:00 8.5 4 Oeste 7 Sudoeste 0 965 -0.3 60
2019-04-29 05:00:00 10 6 Oeste 8 Norte 0 965.1 -0.4 54
2019-04-29 04:00:00 12.3 4 Noroeste 15 Sudoeste 0 965.3 -0.3 48
2019-04-29 03:00:00 13.8 10 Sudoeste 24 Oeste 0 965.3 -0.3 41
2019-04-29 02:00:00 14.7 16 Oeste 26 Oeste 0 965.5 -0.2 42
2019-04-29 01:00:00 14.9 12 Sudoeste 20 Sudoeste 0 965.6 0.3 46
2019-04-29 00:00:00 15.6 12 Oeste 23 Noroeste 0 965.6 0.9 41
2019-04-28 23:00:00 15.2 7 Oeste 12 Sudoeste 0 965.7 1.2 43
2019-04-28 22:00:00 15.8 6 Oeste 9 Sudoeste 0 965.3 0.7 41
2019-04-28 21:00:00 19.7 4 Norte 19 Norte 0 964.7 -0.3 29
2019-04-28 20:00:00 21.9 10 Norte 26 Norte 0 964.5 -1.3 23
2019-04-28 19:00:00 22.9 9 Noroeste 26 Noroeste 0 964.6 -2 16
2019-04-28 18:00:00 23 13 Noroeste 31 Noroeste 0 965 -2.3 15
2019-04-28 17:00:00 22.7 21 Noroeste 34 Noroeste 0 965.8 -2.3 14
2019-04-28 16:00:00 22.1 18 Noroeste 30 Oeste 0 966.6 -2.3 17
2019-04-28 15:00:00 21 14 Noroeste 28 Noroeste 0 967.3 -2.1 16
2019-04-28 14:00:00 19.9 15 Noroeste 26 Noroeste 0 968.1 -1.5 20
2019-04-28 13:00:00 17.9 8 Norte 21 Norte 0 968.9 -1.2 31
2019-04-28 12:00:00 16.2 9 Norte 20 Norte 0 969.4 -1 37
2019-04-28 11:00:00 14.4 7 Norte 22 Noroeste 0 969.6 -0.8 47
2019-04-28 10:00:00 13.3 13 Noroeste 25 Noroeste 0 970.1 -0.4 45
2019-04-28 09:00:00 10.5 12 Sudoeste 26 Sudoeste 0 970.4 -0.5 64
2019-04-28 08:00:00 8.7 13 Sudoeste 23 Sudoeste 0 970.4 -0.8 70
2019-04-28 07:00:00 8.5 13 Sudoeste 22 Oeste 0 970.5 -0.7 70
2019-04-28 06:00:00 8.7 12 Sudoeste 21 Sudoeste 0 970.9 -0.5 68
2019-04-28 05:00:00 8.8 10 Sudoeste 18 Sudoeste 0 971.2 -0.4 68
2019-04-28 04:00:00 9.3 9 Sudoeste 19 Oeste 0 971.2 -0.3 67
2019-04-28 03:00:00 10.5 10 Oeste 19 Oeste 0 971.4 0.1 60
2019-04-28 02:00:00 11.4 11 Oeste 21 Oeste 0 971.6 0.4 58
2019-04-28 01:00:00 13 9 Oeste 29 Noroeste 0 971.5 0.9 52
2019-04-28 00:00:00 13.8 14 Noroeste 24 Oeste 0 971.3 1.3 54
2019-04-27 23:00:00 14.5 12 Oeste 21 Noroeste 0 971.2 1.7 55
2019-04-27 22:00:00 15.7 3 Oeste 21 Noroeste 0 970.6 1 51
2019-04-27 21:00:00 17.6 15 Noroeste 28 Norte 0 970 0.5 44
2019-04-27 20:00:00 19.7 18 Noroeste 28 Noroeste 0 969.5 -0.3 38
2019-04-27 19:00:00 20.6 19 Noroeste 33 Noroeste 0 969.6 -0.7 33
2019-04-27 18:00:00 20.7 18 Norte 38 Noroeste 0 969.5 -1.2 31
2019-04-27 17:00:00 21.5 18 Noroeste 31 Oeste 0 969.8 -1.5 30
2019-04-27 16:00:00 21.1 19 Noroeste 36 Noroeste 0 970.3 -1.5 31
2019-04-27 15:00:00 20.3 18 Noroeste 35 Noroeste 0 970.7 -1.4 32
2019-04-27 14:00:00 19.5 19 Noroeste 31 Noroeste 0 971.3 -0.8 34
2019-04-27 13:00:00 18.3 17 Noroeste 31 Noroeste 0 971.8 -0.7 37
2019-04-27 12:00:00 16.4 17 Noroeste 28 Noroeste 0 972.1 -0.4 40
2019-04-27 11:00:00 14.4 3 Noroeste 17 Oeste 0 972.1 -0.1 49
2019-04-27 10:00:00 11.8 11 Oeste 19 Sudoeste 0 972.5 0.8 57
2019-04-27 09:00:00 9.8 10 Sudoeste 17 Sudoeste 0 972.5 1.2 63
2019-04-27 08:00:00 7.8 9 Sudoeste 19 Sudoeste 0 972.2 1 73
2019-04-27 07:00:00 7.9 9 Sudoeste 21 Sudoeste 0 971.7 0.7 71
2019-04-27 06:00:00 7.8 10 Sudoeste 19 Sudoeste 0 971.3 0 72
2019-04-27 05:00:00 8.2 9 Sudoeste 19 Sudoeste 0 971.2 0.2 68
2019-04-27 04:00:00 8.6 9 Oeste 19 Sudoeste 0 971 0.2 66
2019-04-27 03:00:00 8.7 7 Sudoeste 17 Sudoeste 0 971.3 0.9 58
2019-04-27 02:00:00 9.7 8 Sudoeste 17 Sudoeste 0 971 0.7 55
2019-04-27 01:00:00 9.9 13 Sudoeste 17 Sudoeste 0 970.8 1.4 53
2019-04-27 00:00:00 10.6 7 Sudoeste 16 Sudoeste 0 970.4 1.9 55
2019-04-26 23:00:00 10.9 7 Oeste 15 Noroeste 0 970.3 2.2 53
2019-04-26 22:00:00 12.5 7 Noroeste 12 Noroeste 0 969.4 1.7 46
2019-04-26 21:00:00 15.7 4 Noroeste 19 Noroeste 0 968.5 0.9 37
2019-04-26 20:00:00 17.6 13 Noroeste 26 Noroeste 0 968.1 0.6 30
2019-04-26 19:00:00 18 10 Norte 26 Norte 0 967.7 -0.2 31
2019-04-26 18:00:00 17.4 13 Norte 27 Noroeste 0 967.6 -0.4 32
2019-04-26 17:00:00 17.6 11 Norte 31 Norte 0 967.5 -0.6 31
2019-04-26 16:00:00 18.1 16 Noroeste 28 Noroeste 0 967.9 -0.2 29
2019-04-26 15:00:00 17.3 18 Noroeste 29 Noroeste 0 968 0.3 31
2019-04-26 14:00:00 16.3 14 Noroeste 28 Noroeste 0 968.1 1 36
2019-04-26 13:00:00 16 20 Noroeste 32 Noroeste 0 968.1 1.6 35
2019-04-26 12:00:00 16.1 20 Oeste 37 Oeste 0 967.7 1.8 34
2019-04-26 11:00:00 15 23 Oeste 37 Noroeste 0 967.1 1.8 40
2019-04-26 10:00:00 13.3 19 Oeste 31 Oeste 0 966.5 1.9 47
2019-04-26 09:00:00 10.7 11 Oeste 20 Oeste 0 965.9 2.1 55
2019-04-26 08:00:00 8.5 7 Oeste 22 Oeste 0 965.3 2 61
2019-04-26 07:00:00 9.3 12 Oeste 27 Noroeste 0 964.6 1.9 57
2019-04-26 06:00:00 8.9 10 Oeste 19 Oeste 0 963.8 1.2 58
2019-04-26 05:00:00 7.9 8 Oeste 17 Oeste 0 963.3 0.6 63
2019-04-26 04:00:00 8.5 12 Oeste 23 Oeste 0 962.7 0.7 60
2019-04-26 03:00:00 8.7 14 Sudoeste 23 Sudoeste 0 962.6 1.3 60
2019-04-26 02:00:00 8.4 11 Sudoeste 20 Sudoeste 0 962.7 2 62
2019-04-26 01:00:00 8.9 9 Sudoeste 19 Oeste 0 962 2.5 60
2019-04-26 00:00:00 10.7 13 Sudoeste 25 Sudoeste 0 961.3 2.7 53
2019-04-25 23:00:00 10 9 Sudoeste 14 Oeste 0 960.7 2.7 60
2019-04-25 22:00:00 11 10 Oeste 14 Oeste 0 959.5 1.6 57
2019-04-25 21:00:00 13.2 5 Norte 11 Este 0 958.6 1.9 52
2019-04-25 20:00:00 15.1 6 Noroeste 29 Oeste 0 958 1.8 43
2019-04-25 19:00:00 13.6 21 Oeste 52 Oeste 0.2 957.9 2 54
2019-04-25 18:00:00 16 13 Noroeste 40 Oeste 0 956.7 0.7 41
2019-04-25 17:00:00 16.7 20 Sudoeste 40 Oeste 0 956.2 -0.1 29
2019-04-25 16:00:00 18.6 18 Sudoeste 35 Sudoeste 0 955.9 -0.6 24
2019-04-25 15:00:00 17.4 6 Sur 14 Sur 0 956 -0.7 47
2019-04-25 14:00:00 16.2 7 Oeste 18 Oeste 0 956.3 0.3 53
2019-04-25 13:00:00 15.9 9 Noroeste 23 Oeste 0 956.5 0.9 45
2019-04-25 12:00:00 13.9 13 Oeste 28 Oeste 0 956.7 1.7 53
2019-04-25 11:00:00 14 16 Oeste 28 Oeste 0 956 2.5 47
2019-04-25 10:00:00 12.8 12 Noroeste 23 Noroeste 0 955.6 3.1 55
2019-04-25 09:00:00 12.8 13 Oeste 23 Noroeste 0 955 3.6 59
2019-04-25 08:00:00 13 12 Oeste 26 Noroeste 0 953.5 1.5 68
2019-04-25 07:00:00 15.3 10 Sur 32 Sudeste 0 952.5 0.2 53
2019-04-25 06:00:00 15.3 20 Sudeste 41 Sudeste 0 951.4 -1.1 52
2019-04-25 05:00:00 15 17 Sur 37 Sudeste 0 952 -1.2 54
2019-04-25 04:00:00 14.7 18 Sudeste 42 Sur 0 952.3 -0.6 55
2019-04-25 03:00:00 15.2 23 Sudeste 46 Sur 0 952.5 -0.7 53
2019-04-25 02:00:00 15.4 21 Sur 46 Sudeste 0 953.2 0.6 52
2019-04-25 01:00:00 15.9 18 Sur 43 Sudeste 0 952.9 0.4 47
2019-04-25 00:00:00 16 21 Sur 53 Sudeste 0 953.2 1.8 45
2019-04-24 23:00:00 15.3 27 Sudeste 51 Sudeste 0 952.6 1.3 45
2019-04-24 22:00:00 16.1 20 Sur 45 Sudeste 0 952.5 0.7 45
2019-04-24 21:00:00 16.5 20 Sur 42 Sur 0 951.4 -0.2 43
2019-04-24 20:00:00 18.4 14 Sur 45 Sur 0 951.3 -0.8 36
2019-04-24 19:00:00 18.7 24 Sur 49 Sudoeste 0 951.8 -0.9 35
2019-04-24 18:00:00 18.8 8 Sudeste 18 Este 0 951.6 -1.4 38
2019-04-24 17:00:00 16.8 7 Este 17 Nordeste 0 952.1 -0.6 42
2019-04-24 16:00:00 15.7 7 Este 19 Nordeste 0 952.7 -0.4 46
2019-04-24 15:00:00 14.1 4 Nordeste 17 Este 0 953 -0.2 45
2019-04-24 14:00:00 14.5 13 Este 21 Este 0 952.7 0.1 36
2019-04-24 13:00:00 13.5 9 Sudeste 18 Sudeste 0 953.1 1.1 39
2019-04-24 12:00:00 11.6 7 Sudeste 18 Sudeste 0 953.2 1.8 41
2019-04-24 11:00:00 11 9 Sudeste 26 Sur 0 952.6 2 43
2019-04-24 10:00:00 12.1 10 Sur 25 Sudoeste 0 952 1.9 42
2019-04-24 09:00:00 10.1 8 Sur 19 Sudeste 0 951.4 1.9 51
2019-04-24 08:00:00 7.8 7 Sudoeste 23 Sudoeste 0 950.6 1.6 62
2019-04-24 07:00:00 8.3 13 Sudoeste 18 Sudoeste 0 950.1 1.5 64
2019-04-24 06:00:00 8.4 11 Sudoeste 14 Sudoeste 0 949.5 1.1 63
2019-04-24 05:00:00 8.3 5 Sudoeste 10 Sudoeste 0 949 1 65
2019-04-24 04:00:00 8.1 4 Oeste 8 Oeste 0 948.6 0.8 68
2019-04-24 03:00:00 8.1 5 Sudoeste 9 Oeste 0 948.4 1.1 70
2019-04-24 02:00:00 8.8 5 Sudoeste 9 Sudoeste 0 948 1 60
2019-04-24 01:00:00 9.8 6 Oeste 18 Sudoeste 0 947.8 1.9 53
2019-04-24 00:00:00 10.5 9 Sudoeste 26 Sudoeste 0 947.3 2.8 49